Time;durP1;ratioP1;P1;durP2;ratioP2;P2;SDS_P1;SDS_P2;PMS_P1;PMS_P2;Temp;Humidity;BMP_temperature;BMP_pressure;BME280_temperature;BME280_humidity;BME280_pressure;Samples;Min_cycle;Max_cycle;Signal;HPM_P1;HPM_P2
2020/10/01 00:00:37;;;;;;;1.1;0.9;;;;;;;;;;;;;
2020/10/01 00:03:02;;;;;;;2.2;1.2;;;;;;;;;;;;;
2020/10/01 00:05:27;;;;;;;1.5;1.1;;;;;;;;;;;;;
2020/10/01 00:07:53;;;;;;;1.1;1;;;;;;;;;;;;;
2020/10/01 00:10:20;;;;;;;2.7;1.1;;;;;;;;;;;;;
2020/10/01 00:12:45;;;;;;;2.1;1.5;;;;;;;;;;;;;
2020/10/01 00:15:11;;;;;;;2;1.2;;;;;;;;;;;;;
2020/10/01 00:17:36;;;;;;;1.8;1.2;;;;;;;;;;;;;
2020/10/01 00:20:01;;;;;;;1.7;1;;;;;;;;;;;;;
2020/10/01 00:22:26;;;;;;;1.8;1.2;;;;;;;;;;;;;
2020/10/01 00:24:51;;;;;;;0.7;0.6;;;;;;;;;;;;;
2020/10/01 00:27:17;;;;;;;2.2;1.1;;;;;;;;;;;;;
2020/10/01 00:29:42;;;;;;;1.4;1.1;;;;;;;;;;;;;
2020/10/01 00:32:07;;;;;;;1.8;1;;;;;;;;;;;;;
2020/10/01 00:34:33;;;;;;;2.1;1.1;;;;;;;;;;;;;
2020/10/01 00:36:58;;;;;;;1.5;0.9;;;;;;;;;;;;;
2020/10/01 00:39:25;;;;;;;1.5;1;;;;;;;;;;;;;
2020/10/01 00:41:50;;;;;;;1.8;1.2;;;;;;;;;;;;;
2020/10/01 00:44:16;;;;;;;1.6;1;;;;;;;;;;;;;
2020/10/01 00:46:41;;;;;;;1;0.8;;;;;;;;;;;;;
2020/10/01 00:49:08;;;;;;;1.2;0.9;;;;;;;;;;;;;
2020/10/01 00:51:33;;;;;;;3.7;0.9;;;;;;;;;;;;;
2020/10/01 00:54:02;;;;;;;2.6;0.9;;;;;;;;;;;;;
2020/10/01 00:56:27;;;;;;;1;0.8;;;;;;;;;;;;;
2020/10/01 00:58:52;;;;;;;1.5;0.9;;;;;;;;;;;;;
2020/10/01 01:01:17;;;;;;;1.4;0.9;;;;;;;;;;;;;
2020/10/01 01:03:43;;;;;;;1.4;0.7;;;;;;;;;;;;;
2020/10/01 01:06:08;;;;;;;1.6;0.9;;;;;;;;;;;;;
2020/10/01 01:08:34;;;;;;;1.9;1;;;;;;;;;;;;;
2020/10/01 01:11:01;;;;;;;1.2;0.8;;;;;;;;;;;;;
2020/10/01 01:13:25;;;;;;;2.1;1;;;;;;;;;;;;;
2020/10/01 01:15:51;;;;;;;3.1;1.2;;;;;;;;;;;;;
2020/10/01 01:18:17;;;;;;;1.2;0.8;;;;;;;;;;;;;
2020/10/01 01:20:42;;;;;;;2.7;0.8;;;;;;;;;;;;;
2020/10/01 01:23:08;;;;;;;1.3;1;;;;;;;;;;;;;
2020/10/01 01:25:33;;;;;;;0.9;0.8;;;;;;;;;;;;;
2020/10/01 01:27:59;;;;;;;1.7;1;;;;;;;;;;;;;
2020/10/01 01:30:24;;;;;;;1.7;1.1;;;;;;;;;;;;;
2020/10/01 01:32:51;;;;;;;0.9;0.6;;;;;;;;;;;;;
2020/10/01 01:35:16;;;;;;;0.5;0.5;;;;;;;;;;;;;
2020/10/01 01:37:42;;;;;;;2.9;1;;;;;;;;;;;;;
2020/10/01 01:40:07;;;;;;;2.3;0.9;;;;;;;;;;;;;
2020/10/01 01:42:33;;;;;;;2;1;;;;;;;;;;;;;
2020/10/01 01:44:58;;;;;;;1.3;0.9;;;;;;;;;;;;;
2020/10/01 01:47:25;;;;;;;1.8;1;;;;;;;;;;;;;
2020/10/01 01:49:50;;;;;;;1.1;1;;;;;;;;;;;;;
2020/10/01 01:52:17;;;;;;;1.2;1;;;;;;;;;;;;;
2020/10/01 01:54:42;;;;;;;1.6;0.9;;;;;;;;;;;;;
2020/10/01 01:57:08;;;;;;;2;0.9;;;;;;;;;;;;;
2020/10/01 01:59:34;;;;;;;2.1;1;;;;;;;;;;;;;
2020/10/01 02:01:59;;;;;;;1.2;0.9;;;;;;;;;;;;;
2020/10/01 02:04:24;;;;;;;1.4;0.9;;;;;;;;;;;;;
2020/10/01 02:06:49;;;;;;;2.2;1.1;;;;;;;;;;;;;
2020/10/01 02:09:14;;;;;;;2.3;1.1;;;;;;;;;;;;;
2020/10/01 02:11:39;;;;;;;5.3;1.3;;;;;;;;;;;;;
2020/10/01 02:14:05;;;;;;;1.7;1.2;;;;;;;;;;;;;
2020/10/01 02:16:31;;;;;;;0.9;0.8;;;;;;;;;;;;;
2020/10/01 02:18:57;;;;;;;0.5;0.5;;;;;;;;;;;;;
2020/10/01 02:21:22;;;;;;;1.2;0.7;;;;;;;;;;;;;
2020/10/01 02:23:48;;;;;;;2.3;1.1;;;;;;;;;;;;;
2020/10/01 02:26:13;;;;;;;1.8;1.1;;;;;;;;;;;;;
2020/10/01 02:28:39;;;;;;;1.4;1;;;;;;;;;;;;;
2020/10/01 02:31:04;;;;;;;1.4;1;;;;;;;;;;;;;
2020/10/01 02:33:30;;;;;;;2;1.1;;;;;;;;;;;;;
2020/10/01 02:35:55;;;;;;;2.2;1.2;;;;;;;;;;;;;
2020/10/01 02:38:21;;;;;;;1.9;1.2;;;;;;;;;;;;;
2020/10/01 02:40:46;;;;;;;2.1;1.2;;;;;;;;;;;;;
2020/10/01 02:43:13;;;;;;;0.8;0.8;;;;;;;;;;;;;
2020/10/01 02:45:38;;;;;;;1.2;1;;;;;;;;;;;;;
2020/10/01 02:48:04;;;;;;;1.2;0.9;;;;;;;;;;;;;
2020/10/01 02:50:29;;;;;;;1.9;0.8;;;;;;;;;;;;;
2020/10/01 02:52:55;;;;;;;1.4;0.9;;;;;;;;;;;;;
2020/10/01 02:55:21;;;;;;;1.2;0.9;;;;;;;;;;;;;
2020/10/01 02:57:47;;;;;;;1.1;0.9;;;;;;;;;;;;;
2020/10/01 03:00:12;;;;;;;1.7;0.9;;;;;;;;;;;;;
2020/10/01 03:02:38;;;;;;;2.1;1;;;;;;;;;;;;;
2020/10/01 03:05:03;;;;;;;6.3;0.9;;;;;;;;;;;;;
2020/10/01 03:07:28;;;;;;;1.9;1.1;;;;;;;;;;;;;
2020/10/01 03:09:53;;;;;;;0.7;0.7;;;;;;;;;;;;;
2020/10/01 03:12:19;;;;;;;1.3;0.8;;;;;;;;;;;;;
2020/10/01 03:14:43;;;;;;;3.1;1.1;;;;;;;;;;;;;
2020/10/01 03:17:08;;;;;;;0.6;0.6;;;;;;;;;;;;;
2020/10/01 03:19:34;;;;;;;0.8;0.8;;;;;;;;;;;;;
2020/10/01 03:21:59;;;;;;;1.2;0.9;;;;;;;;;;;;;
2020/10/01 03:24:27;;;;;;;1.2;0.8;;;;;;;;;;;;;
2020/10/01 03:26:51;;;;;;;1.2;0.9;;;;;;;;;;;;;
2020/10/01 03:29:17;;;;;;;5.4;1.1;;;;;;;;;;;;;
2020/10/01 03:31:42;;;;;;;1.8;1;;;;;;;;;;;;;
2020/10/01 03:34:11;;;;;;;0.8;0.7;;;;;;;;;;;;;
2020/10/01 03:36:36;;;;;;;1.1;0.9;;;;;;;;;;;;;
2020/10/01 03:39:01;;;;;;;0.9;0.8;;;;;;;;;;;;;
2020/10/01 03:41:26;;;;;;;1.8;0.9;;;;;;;;;;;;;
2020/10/01 03:43:51;;;;;;;1.8;0.9;;;;;;;;;;;;;
2020/10/01 03:46:17;;;;;;;1.7;0.7;;;;;;;;;;;;;
2020/10/01 03:48:42;;;;;;;1;0.8;;;;;;;;;;;;;
2020/10/01 03:51:07;;;;;;;1.2;0.8;;;;;;;;;;;;;
2020/10/01 03:53:33;;;;;;;1.6;1.2;;;;;;;;;;;;;
2020/10/01 03:55:58;;;;;;;1.8;1.1;;;;;;;;;;;;;
2020/10/01 03:58:25;;;;;;;1.8;1.3;;;;;;;;;;;;;
2020/10/01 04:02:36;;;;;;;2.3;1.2;;;;;;;8.68;89.34668;930.8864;;;;
2020/10/01 04:05:07;;;;;;;1.9;1;;;;;;;8.54;89.78223;930.8172;;;;
2020/10/01 04:07:32;;;;;;;1.5;1.1;;;;;;;8.21;91.67773;930.7787;;;;
2020/10/01 04:09:59;;;;;;;3.7;1.4;;;;;;;8.05;92.73438;930.8293;;;;
2020/10/01 04:12:24;;;;;;;4;1.5;;;;;;;8.1;92.50781;930.7456;;;;
2020/10/01 04:14:49;;;;;;;3.4;1.6;;;;;;;8.18;91.76465;930.785;;;;
2020/10/01 04:17:15;;;;;;;1.6;1.3;;;;;;;8.12;91.87402;930.7449;;;;
2020/10/01 04:19:40;;;;;;;2.4;1.4;;;;;;;7.97;92.75098;930.6922;;;;
2020/10/01 04:22:07;;;;;;;2.8;1.8;;;;;;;7.98;92.70801;930.6962;;;;
2020/10/01 04:24:32;;;;;;;4;2.1;;;;;;;7.89;93.3125;930.6758;;;;
2020/10/01 04:26:59;;;;;;;4.9;2;;;;;;;7.97;93.19336;930.685;;;;
2020/10/01 04:29:24;;;;;;;4.7;2;;;;;;;8.09;92.71973;930.7138;;;;
2020/10/01 04:31:51;;;;;;;2.3;1.6;;;;;;;8.23;91.7627;930.6761;;;;
2020/10/01 04:34:16;;;;;;;3;1.6;;;;;;;8.35;91.00391;930.5945;;;;
2020/10/01 04:36:41;;;;;;;3.1;1.3;;;;;;;8.47;90.41504;930.7081;;;;
2020/10/01 04:39:06;;;;;;;3.3;1.5;;;;;;;8.52;89.92676;930.6417;;;;
2020/10/01 04:41:31;;;;;;;2.5;1.3;;;;;;;8.57;90.0625;930.6816;;;;
2020/10/01 04:43:56;;;;;;;1.8;1.4;;;;;;;8.67;89.81055;930.6244;;;;
2020/10/01 04:46:23;;;;;;;3.1;1.8;;;;;;;8.7;88.56543;930.5229;;;;
2020/10/01 04:48:50;;;;;;;4.1;1.6;;;;;;;8.72;88.09375;930.6349;;;;
2020/10/01 04:51:15;;;;;;;2.4;1.3;;;;;;;8.76;87.49902;930.5906;;;;
2020/10/01 04:53:46;;;;;;;4.6;2.2;;;;;;;8.74;87.3457;930.5889;;;;
2020/10/01 04:56:15;;;;;;;3.6;1.7;;;;;;;8.73;87.25293;930.527;;;;
2020/10/01 04:58:41;;;;;;;2.6;1.6;;;;;;;8.68;87.15234;930.5341;;;;
2020/10/01 05:01:06;;;;;;;1.7;1.1;;;;;;;8.56;87.80859;930.5212;;;;
2020/10/01 05:03:31;;;;;;;5;1.7;;;;;;;8.51;88.36914;930.5234;;;;
2020/10/01 05:05:56;;;;;;;1.6;1.1;;;;;;;8.46;88.34668;930.4907;;;;
2020/10/01 05:08:21;;;;;;;1.6;1.1;;;;;;;8.41;88.7334;930.4957;;;;
2020/10/01 05:10:48;;;;;;;1.9;1.2;;;;;;;8.44;88.58203;930.5502;;;;
2020/10/01 05:13:13;;;;;;;3;1.1;;;;;;;8.5;88.83203;930.5099;;;;
2020/10/01 05:15:38;;;;;;;1.7;1.1;;;;;;;8.51;88.64258;930.4822;;;;
2020/10/01 05:18:04;;;;;;;1.5;1;;;;;;;8.51;88.39258;930.533;;;;
2020/10/01 05:20:33;;;;;;;2.3;1.3;;;;;;;8.48;88.7373;930.5511;;;;
2020/10/01 05:23:01;;;;;;;2.8;1.4;;;;;;;8.47;88.54004;930.5336;;;;
2020/10/01 05:25:26;;;;;;;1.6;1;;;;;;;8.34;89.28711;930.5613;;;;
2020/10/01 05:27:55;;;;;;;1.5;1.1;;;;;;;8.46;89.21094;930.5432;;;;
2020/10/01 05:30:29;;;;;;;1.5;0.9;;;;;;;8.55;89.02246;930.5276;;;;
2020/10/01 05:33:02;;;;;;;5.2;1.8;;;;;;;8.59;88.92969;930.5357;;;;
2020/10/01 05:35:24;;;;;;;13.1;4.5;;;;;;;8.65;89.19141;930.5179;;;;
2020/10/01 05:37:54;;;;;;;13.7;5;;;;;;;8.48;89.81641;930.4995;;;;
2020/10/01 05:40:19;;;;;;;18.3;5.9;;;;;;;8.63;89.17773;930.5378;;;;
2020/10/01 05:42:44;;;;;;;10.5;3.9;;;;;;;8.56;89.64063;930.5039;;;;
2020/10/01 05:45:19;;;;;;;6.2;2.5;;;;;;;8.68;88.95996;930.48;;;;
2020/10/01 05:47:44;;;;;;;4.2;2.2;;;;;;;8.76;88.34961;930.4604;;;;
2020/10/01 05:50:18;;;;;;;7.3;2;;;;;;;8.73;88.26465;930.5255;;;;
2020/10/01 05:52:47;;;;;;;4.8;1.7;;;;;;;8.64;89.28027;930.4758;;;;
2020/10/01 05:55:09;;;;;;;4.7;1.9;;;;;;;8.76;88.96387;930.4288;;;;
2020/10/01 05:57:34;;;;;;;2.9;1.6;;;;;;;8.82;88.98828;930.4895;;;;
2020/10/01 05:59:59;;;;;;;2.2;1.5;;;;;;;8.66;89.76367;930.4879;;;;
2020/10/01 06:02:26;;;;;;;3.4;1.5;;;;;;;8.91;89.16602;930.4358;;;;
2020/10/01 06:04:49;;;;;;;4.1;1.5;;;;;;;9.05;87.8418;930.438;;;;
2020/10/01 06:07:15;;;;;;;5.7;1.6;;;;;;;8.98;87.98633;930.447;;;;
2020/10/01 06:09:40;;;;;;;3;1.5;;;;;;;9;88.19629;930.4361;;;;
2020/10/01 06:12:05;;;;;;;3.1;1.2;;;;;;;9.14;87.97363;930.4391;;;;
2020/10/01 06:14:30;;;;;;;3.5;1.8;;;;;;;9.27;87.9541;930.4205;;;;
2020/10/01 06:16:55;;;;;;;5.2;1.8;;;;;;;9.41;87.6416;930.3777;;;;
2020/10/01 06:19:26;;;;;;;2.1;1.6;;;;;;;9.51;88.9834;930.3542;;;;
2020/10/01 06:21:52;;;;;;;6.5;1.9;;;;;;;9.69;88.14355;930.349;;;;
2020/10/01 06:24:17;;;;;;;3.1;1.3;;;;;;;9.8;86.87598;930.3649;;;;
2020/10/01 06:26:43;;;;;;;7.5;2;;;;;;;9.85;86.10156;930.3301;;;;
2020/10/01 06:29:08;;;;;;;3.5;1.4;;;;;;;9.69;87.1748;930.3482;;;;
2020/10/01 06:31:35;;;;;;;3.1;1.6;;;;;;;9.67;87.30566;930.3538;;;;
2020/10/01 06:34:01;;;;;;;2.6;1.6;;;;;;;9.7;87.55078;930.3228;;;;
2020/10/01 06:36:26;;;;;;;3.9;1.6;;;;;;;9.8;87.49121;930.3108;;;;
2020/10/01 06:38:53;;;;;;;3.7;1.3;;;;;;;9.87;88.06641;930.2728;;;;
2020/10/01 06:41:18;;;;;;;3;1.6;;;;;;;9.97;87.45898;930.2465;;;;
2020/10/01 06:43:43;;;;;;;3.4;1.4;;;;;;;10.11;87.64648;930.1972;;;;
2020/10/01 06:46:09;;;;;;;2.6;1.4;;;;;;;10.33;86.87012;930.1941;;;;
2020/10/01 06:48:34;;;;;;;1.3;1.2;;;;;;;10.53;86.92188;930.1873;;;;
2020/10/01 06:51:04;;;;;;;1.2;0.8;;;;;;;10.76;85.05957;930.1596;;;;
2020/10/01 06:53:29;;;;;;;2.1;1.1;;;;;;;10.77;83.67773;930.1691;;;;
2020/10/01 06:55:57;;;;;;;2.2;1.2;;;;;;;11.02;83.5791;930.1677;;;;
2020/10/01 06:58:24;;;;;;;1.1;0.9;;;;;;;11.27;82.97656;930.1258;;;;
2020/10/01 07:00:53;;;;;;;4.5;1.4;;;;;;;11.55;81.56543;930.1035;;;;
2020/10/01 07:03:21;;;;;;;3;1.6;;;;;;;11.75;80.42285;930.0654;;;;
2020/10/01 07:05:47;;;;;;;6.8;1.7;;;;;;;12.06;79.97559;930.1186;;;;
2020/10/01 07:08:12;;;;;;;6.1;2.4;;;;;;;12.24;79.44727;930.0818;;;;
2020/10/01 07:10:39;;;;;;;4;2.1;;;;;;;12.48;79.12305;930.0836;;;;
2020/10/01 07:13:09;;;;;;;2.5;1.6;;;;;;;12.21;78.2959;930.0503;;;;
2020/10/01 07:15:38;;;;;;;1.8;1.3;;;;;;;12.67;78.33301;930.0259;;;;
2020/10/01 07:18:06;;;;;;;1.2;0.9;;;;;;;13.02;76.52344;930.0028;;;;
2020/10/01 07:20:31;;;;;;;1.1;1;;;;;;;12.92;76.24219;929.9832;;;;
2020/10/01 07:22:56;;;;;;;1.9;1.3;;;;;;;13.04;74.73535;929.9291;;;;
2020/10/01 07:25:25;;;;;;;0.8;0.6;;;;;;;13.56;73.27441;929.8806;;;;
2020/10/01 07:27:51;;;;;;;2.5;1.2;;;;;;;13.56;74.52832;929.935;;;;
2020/10/01 07:30:24;;;;;;;0.6;0.6;;;;;;;13.72;72.06934;929.9042;;;;
2020/10/01 07:32:50;;;;;;;1.6;0.8;;;;;;;14.38;70.12793;929.7725;;;;
2020/10/01 07:35:18;;;;;;;1.3;0.6;;;;;;;15.05;68.83984;929.7854;;;;
2020/10/01 07:37:44;;;;;;;1.7;0.7;;;;;;;15.63;64.54102;929.7447;;;;
2020/10/01 07:40:13;;;;;;;3;0.9;;;;;;;15.91;64.2832;929.673;;;;
2020/10/01 07:42:37;;;;;;;0.8;0.6;;;;;;;16.69;63.10059;929.6507;;;;
2020/10/01 07:45:02;;;;;;;0.6;0.5;;;;;;;17.04;59.39453;929.4822;;;;
2020/10/01 07:47:27;;;;;;;1.1;0.7;;;;;;;17.38;57.4707;929.5003;;;;
2020/10/01 07:49:52;;;;;;;0.8;0.7;;;;;;;17.22;56.64941;929.5453;;;;
2020/10/01 07:52:20;;;;;;;1;0.6;;;;;;;18.33;55.57227;929.4653;;;;
2020/10/01 07:54:46;;;;;;;4.3;0.9;;;;;;;19.35;53.04297;929.418;;;;
2020/10/01 07:57:11;;;;;;;1.3;0.4;;;;;;;21.12;49.44434;929.308;;;;
2020/10/01 07:59:41;;;;;;;0.9;0.5;;;;;;;21.54;46.05957;929.2261;;;;
2020/10/01 08:02:04;;;;;;;1.3;0.4;;;;;;;21.83;45.2002;929.255;;;;
2020/10/01 08:04:31;;;;;;;0.8;0.6;;;;;;;23.22;44.17773;929.1506;;;;
2020/10/01 08:06:54;;;;;;;4.2;0.9;;;;;;;22.93;41.35352;929.0969;;;;
2020/10/01 08:09:27;;;;;;;0.8;0.5;;;;;;;24.15;39.61816;929.0446;;;;
2020/10/01 08:11:52;;;;;;;0.7;0.5;;;;;;;23.53;39.92773;929.0521;;;;
2020/10/01 08:14:18;;;;;;;3.4;0.9;;;;;;;23.77;38.37207;928.9672;;;;
2020/10/01 08:16:48;;;;;;;1.1;0.5;;;;;;;23.33;40.00391;928.9841;;;;
2020/10/01 08:19:15;;;;;;;0.9;0.6;;;;;;;23.33;39.33301;928.9379;;;;
2020/10/01 08:21:40;;;;;;;0.4;0.3;;;;;;;23.48;39.92285;928.921;;;;
2020/10/01 08:24:08;;;;;;;0.5;0.4;;;;;;;23.35;40.4043;928.8019;;;;
2020/10/01 08:26:33;;;;;;;4.9;0.7;;;;;;;23.45;40.1084;928.7885;;;;
2020/10/01 08:29:00;;;;;;;0.7;0.3;;;;;;;22.62;40.08008;928.8088;;;;
2020/10/01 08:31:26;;;;;;;1.1;0.8;;;;;;;23.23;41.05176;928.8011;;;;
2020/10/01 08:33:51;;;;;;;0.6;0.4;;;;;;;23.81;40.3877;928.7723;;;;
2020/10/01 08:36:17;;;;;;;0.9;0.4;;;;;;;24.56;38.46387;928.8367;;;;
2020/10/01 08:38:44;;;;;;;1.1;0.4;;;;;;;24.9;36.15723;928.7754;;;;
2020/10/01 08:41:07;;;;;;;0.7;0.4;;;;;;;24.29;37.72168;928.7264;;;;
2020/10/01 08:43:38;;;;;;;2;1.2;;;;;;;24.01;39.4873;928.7476;;;;
2020/10/01 08:46:07;;;;;;;3.2;1;;;;;;;23.15;40.0918;928.7178;;;;
2020/10/01 08:48:36;;;;;;;1.8;0.9;;;;;;;22.71;40.68652;928.6819;;;;
2020/10/01 08:51:06;;;;;;;0.4;0.3;;;;;;;22.38;43.13184;928.7092;;;;
2020/10/01 08:53:31;;;;;;;1.3;0.4;;;;;;;22.29;41.69238;928.6398;;;;
2020/10/01 08:55:56;;;;;;;1.2;0.5;;;;;;;22.86;42.5918;928.6211;;;;
2020/10/01 08:58:24;;;;;;;0.9;0.6;;;;;;;22.72;41.35742;928.5733;;;;
2020/10/01 09:00:53;;;;;;;0.4;0.4;;;;;;;23.45;41.86035;928.5369;;;;
2020/10/01 09:03:17;;;;;;;0.8;0.4;;;;;;;23.51;40.34863;928.4498;;;;
2020/10/01 09:05:46;;;;;;;1.7;0.7;;;;;;;23.37;42.05273;928.3903;;;;
2020/10/01 09:08:11;;;;;;;0.6;0.6;;;;;;;23.58;40.66113;928.3525;;;;
2020/10/01 09:10:43;;;;;;;0.3;0.3;;;;;;;24.13;40.76953;928.257;;;;
2020/10/01 09:13:08;;;;;;;1;0.6;;;;;;;24.59;40.06934;928.2341;;;;
2020/10/01 09:15:38;;;;;;;0.4;0.4;;;;;;;25.23;37.91992;928.2034;;;;
2020/10/01 09:18:04;;;;;;;3.6;0.5;;;;;;;25.84;37.03711;928.2008;;;;
2020/10/01 09:20:29;;;;;;;6.3;0.9;;;;;;;26.59;36.88574;928.1526;;;;
2020/10/01 09:22:57;;;;;;;0.7;0.4;;;;;;;26.69;36.08984;928.1619;;;;
2020/10/01 09:25:22;;;;;;;0.7;0.6;;;;;;;24.46;36.84082;928.1744;;;;
2020/10/01 09:27:49;;;;;;;1.2;0.6;;;;;;;23.32;40.33203;928.1163;;;;
2020/10/01 09:30:23;;;;;;;0.9;0.5;;;;;;;23.71;39.74316;928.105;;;;
2020/10/01 09:32:49;;;;;;;3.8;0.7;;;;;;;23.56;39.78906;928.0316;;;;
2020/10/01 09:35:14;;;;;;;3.2;0.6;;;;;;;23.76;40.61816;927.973;;;;
2020/10/01 09:37:39;;;;;;;0.6;0.5;;;;;;;23.94;39.64551;927.9034;;;;
2020/10/01 09:40:10;;;;;;;2.1;0.7;;;;;;;23.89;39.95898;927.8836;;;;
2020/10/01 09:42:29;;;;;;;1.1;0.5;;;;;;;23.78;39.05566;927.8449;;;;
2020/10/01 09:44:54;;;;;;;1.2;0.8;;;;;;;23.69;40.51855;927.8525;;;;
2020/10/01 09:47:21;;;;;;;2.4;0.7;;;;;;;23.52;41.4082;927.848;;;;
2020/10/01 09:49:46;;;;;;;0.6;0.4;;;;;;;23.03;43.75977;927.7626;;;;
2020/10/01 09:52:12;;;;;;;0.5;0.5;;;;;;;22.27;42.27734;927.7232;;;;
2020/10/01 09:54:37;;;;;;;23;0.8;;;;;;;21.85;43.93555;927.7314;;;;
2020/10/01 09:57:02;;;;;;;0.9;0.6;;;;;;;22;45.86035;927.7391;;;;
2020/10/01 09:59:28;;;;;;;0.6;0.3;;;;;;;21.94;44.15625;927.7083;;;;
2020/10/01 10:01:54;;;;;;;1.3;0.5;;;;;;;21.94;43.72266;927.6311;;;;
2020/10/01 10:04:21;;;;;;;0.8;0.6;;;;;;;22.05;45.51465;927.6326;;;;
2020/10/01 10:06:46;;;;;;;0.9;0.7;;;;;;;22.2;43.81836;927.6666;;;;
2020/10/01 10:09:20;;;;;;;0.6;0.4;;;;;;;21.92;42.37305;927.5828;;;;
2020/10/01 10:11:43;;;;;;;0.2;0.2;;;;;;;21.58;44.95215;927.5853;;;;
2020/10/01 10:14:08;;;;;;;0.2;0.2;;;;;;;22.11;46.51855;927.5278;;;;
2020/10/01 10:16:33;;;;;;;1.9;0.7;;;;;;;22.21;44.3457;927.4614;;;;
2020/10/01 10:18:59;;;;;;;1;0.3;;;;;;;22.13;43.18945;927.4442;;;;
2020/10/01 10:21:26;;;;;;;0.7;0.5;;;;;;;22.26;40.8457;927.4642;;;;
2020/10/01 10:23:51;;;;;;;0.3;0.2;;;;;;;22.41;41.12793;927.4113;;;;
2020/10/01 10:26:17;;;;;;;1.1;0.5;;;;;;;22.27;40.69336;927.3984;;;;
2020/10/01 10:28:43;;;;;;;1;0.5;;;;;;;22.44;41.31934;927.3904;;;;
2020/10/01 10:31:12;;;;;;;1.5;0.6;;;;;;;22.64;41.87793;927.3814;;;;
2020/10/01 10:33:41;;;;;;;1.3;0.7;;;;;;;22.76;41.71289;927.2698;;;;
2020/10/01 10:36:08;;;;;;;0.9;0.5;;;;;;;22.71;41.4502;927.2372;;;;
2020/10/01 10:38:33;;;;;;;0.7;0.5;;;;;;;22.7;44.2793;927.279;;;;
2020/10/01 10:41:05;;;;;;;0.5;0.5;;;;;;;22.4;44.06055;927.2208;;;;
2020/10/01 10:43:33;;;;;;;0.3;0.3;;;;;;;22.52;42.92383;927.23;;;;
2020/10/01 10:46:04;;;;;;;0.3;0.3;;;;;;;22.53;45.69238;927.1414;;;;
2020/10/01 10:48:34;;;;;;;0.6;0.4;;;;;;;22.56;43.72363;927.1592;;;;
2020/10/01 10:50:59;;;;;;;0.9;0.6;;;;;;;22.56;44.43945;927.1511;;;;
2020/10/01 10:53:30;;;;;;;0.9;0.7;;;;;;;22.73;43.0957;927.1426;;;;
2020/10/01 10:55:55;;;;;;;1;0.7;;;;;;;23.14;40.00977;927.1525;;;;
2020/10/01 10:58:24;;;;;;;1.3;0.7;;;;;;;23.46;40.62598;927.1972;;;;
2020/10/01 11:00:51;;;;;;;1.6;0.7;;;;;;;23.5;39.3252;927.1702;;;;
2020/10/01 11:03:22;;;;;;;1.1;0.6;;;;;;;23.86;41.2627;927.0837;;;;
2020/10/01 11:05:47;;;;;;;2.3;0.4;;;;;;;24.02;37.47461;927.0739;;;;
2020/10/01 11:08:13;;;;;;;0.3;0.3;;;;;;;24.23;38.70605;927.0372;;;;
2020/10/01 11:10:38;;;;;;;0.4;0.3;;;;;;;24.38;39.13184;927.0248;;;;
2020/10/01 11:13:04;;;;;;;1.2;0.4;;;;;;;24.99;37.33203;927.0325;;;;
2020/10/01 11:15:30;;;;;;;1.4;0.8;;;;;;;25.24;39.5957;926.988;;;;
2020/10/01 11:18:02;;;;;;;0.6;0.5;;;;;;;25.49;38.69727;926.9177;;;;
2020/10/01 11:20:27;;;;;;;1.3;0.6;;;;;;;26.32;38.80469;926.9036;;;;
2020/10/01 11:22:52;;;;;;;0.8;0.6;;;;;;;27.36;33.94824;926.8064;;;;
2020/10/01 11:25:18;;;;;;;0.2;0.2;;;;;;;28.48;33.20117;926.8503;;;;
2020/10/01 11:27:44;;;;;;;0.5;0.3;;;;;;;29.15;30.27246;926.8011;;;;
2020/10/01 11:30:12;;;;;;;0.4;0.3;;;;;;;30.01;30.65234;926.7678;;;;
2020/10/01 11:32:40;;;;;;;3.2;0.4;;;;;;;30.44;29.10547;926.7556;;;;
2020/10/01 11:35:12;;;;;;;1;0.6;;;;;;;30.88;27.56738;926.7432;;;;
2020/10/01 11:37:37;;;;;;;2.1;0.7;;;;;;;31.42;26.81055;926.709;;;;
2020/10/01 11:40:02;;;;;;;0.6;0.5;;;;;;;32;26.85645;926.7814;;;;
2020/10/01 11:42:30;;;;;;;1.4;0.6;;;;;;;32.46;26.04395;926.7795;;;;
2020/10/01 11:44:55;;;;;;;1.6;0.8;;;;;;;32.22;26.60645;926.6721;;;;
2020/10/01 11:47:20;;;;;;;0.6;0.4;;;;;;;32.65;25.40625;926.6972;;;;
2020/10/01 11:49:45;;;;;;;0.6;0.6;;;;;;;33.39;24.33008;926.6461;;;;
2020/10/01 11:52:10;;;;;;;0.8;0.6;;;;;;;33.94;24.4082;926.6517;;;;
2020/10/01 11:54:38;;;;;;;0.8;0.7;;;;;;;34.86;21.75586;926.558;;;;
2020/10/01 11:57:05;;;;;;;1.9;0.6;;;;;;;35.31;22.30859;926.5833;;;;
2020/10/01 11:59:30;;;;;;;1.4;0.8;;;;;;;34.65;22.4209;926.493;;;;
2020/10/01 12:01:59;;;;;;;1.3;0.9;;;;;;;34.22;23.45898;926.5329;;;;
2020/10/01 12:04:25;;;;;;;1.8;0.9;;;;;;;34.75;22.00391;926.4858;;;;
2020/10/01 12:06:50;;;;;;;1.2;0.7;;;;;;;35.2;21.83203;926.4877;;;;
2020/10/01 12:09:19;;;;;;;1.4;0.9;;;;;;;35.08;22.22461;926.4001;;;;
2020/10/01 12:11:47;;;;;;;1.7;0.8;;;;;;;34.88;23.01074;926.4202;;;;
2020/10/01 12:14:12;;;;;;;2.9;0.8;;;;;;;34.83;23.10449;926.4028;;;;
2020/10/01 12:16:40;;;;;;;1.5;0.8;;;;;;;34.78;23.29492;926.4302;;;;
2020/10/01 12:19:10;;;;;;;2.1;0.9;;;;;;;34.9;23.3623;926.4182;;;;
2020/10/01 12:21:36;;;;;;;2.8;0.9;;;;;;;34.96;23.28027;926.4475;;;;
2020/10/01 12:24:02;;;;;;;1.3;0.8;;;;;;;35.84;22.51563;926.456;;;;
2020/10/01 12:26:26;;;;;;;0.9;0.8;;;;;;;36.04;22.6582;926.4999;;;;
2020/10/01 12:28:52;;;;;;;1.3;0.7;;;;;;;35.78;22.5;926.4203;;;;
2020/10/01 12:31:22;;;;;;;0.9;0.8;;;;;;;35.66;22.36133;926.4131;;;;
2020/10/01 12:33:51;;;;;;;2.9;0.5;;;;;;;35.77;22.77832;926.37;;;;
2020/10/01 12:36:16;;;;;;;1.8;0.7;;;;;;;35.65;22.56641;926.4086;;;;
2020/10/01 12:38:42;;;;;;;0.8;0.6;;;;;;;35.54;21.83594;926.4436;;;;
2020/10/01 12:41:07;;;;;;;1;0.7;;;;;;;35.04;23.34473;926.4078;;;;
2020/10/01 12:43:34;;;;;;;1.2;0.6;;;;;;;35.25;23.36719;926.3281;;;;
2020/10/01 12:46:06;;;;;;;0.6;0.6;;;;;;;35.04;22.47559;926.3003;;;;
2020/10/01 12:48:33;;;;;;;1.3;0.8;;;;;;;35.42;21.74609;926.3769;;;;
2020/10/01 12:51:01;;;;;;;1.1;0.7;;;;;;;35.21;21.95313;926.4271;;;;
2020/10/01 12:53:23;;;;;;;0.9;0.4;;;;;;;35.51;22.57129;926.4149;;;;
2020/10/01 12:55:48;;;;;;;0.4;0.4;;;;;;;36.15;20.88574;926.4239;;;;
2020/10/01 12:58:17;;;;;;;0.8;0.7;;;;;;;35.94;21.4082;926.3563;;;;
2020/10/01 13:00:49;;;;;;;0.6;0.5;;;;;;;36.3;21.20703;926.3322;;;;
2020/10/01 13:03:16;;;;;;;2.1;0.9;;;;;;;36.6;20.4707;926.3304;;;;
2020/10/01 13:05:48;;;;;;;1.1;0.6;;;;;;;36.26;20.91504;926.3251;;;;
2020/10/01 13:08:14;;;;;;;1.4;0.8;;;;;;;36.26;20.20117;926.329;;;;
2020/10/01 13:10:39;;;;;;;1.6;0.8;;;;;;;35.98;21.36133;926.3275;;;;
2020/10/01 13:13:07;;;;;;;0.8;0.8;;;;;;;36.48;20.06543;926.3961;;;;
2020/10/01 13:15:43;;;;;;;0.8;0.7;;;;;;;36.71;19.61621;926.3862;;;;
2020/10/01 13:18:15;;;;;;;0.9;0.5;;;;;;;36.15;20.36621;926.4216;;;;
2020/10/01 13:20:39;;;;;;;1.5;0.9;;;;;;;35.71;20.91406;926.3965;;;;
2020/10/01 13:23:05;;;;;;;1.4;0.7;;;;;;;35.98;21.04688;926.3823;;;;
2020/10/01 13:25:30;;;;;;;1.3;0.9;;;;;;;36.21;20.35645;926.3956;;;;
2020/10/01 13:27:56;;;;;;;1;0.9;;;;;;;35.98;20.37012;926.3745;;;;
2020/10/01 13:30:27;;;;;;;1;0.6;;;;;;;36.18;20.45215;926.3923;;;;
2020/10/01 13:32:57;;;;;;;0.7;0.6;;;;;;;36.26;20.11621;926.4003;;;;
2020/10/01 13:35:20;;;;;;;1.2;0.4;;;;;;;36.39;19.89258;926.3434;;;;
2020/10/01 13:37:45;;;;;;;0.8;0.5;;;;;;;36.43;20.14844;926.3395;;;;
2020/10/01 13:40:10;;;;;;;1.7;0.8;;;;;;;36.77;19.13379;926.3452;;;;
2020/10/01 13:42:39;;;;;;;0.5;0.5;;;;;;;36.09;21.08887;926.3438;;;;
2020/10/01 13:45:08;;;;;;;0.8;0.7;;;;;;;35.67;21.89063;926.3883;;;;
2020/10/01 13:47:33;;;;;;;1;0.9;;;;;;;35.86;21.95996;926.3834;;;;
2020/10/01 13:50:03;;;;;;;0.5;0.5;;;;;;;36.15;21.40625;926.3747;;;;
2020/10/01 13:52:24;;;;;;;1.1;0.7;;;;;;;36.31;21.63086;926.4403;;;;
2020/10/01 13:54:50;;;;;;;1.5;0.8;;;;;;;35.18;22.49512;926.3956;;;;
2020/10/01 13:57:16;;;;;;;2;0.9;;;;;;;34.03;24.5332;926.4359;;;;
2020/10/01 13:59:40;;;;;;;1;0.6;;;;;;;33.59;25.49512;926.4073;;;;
2020/10/01 14:02:05;;;;;;;1.5;0.6;;;;;;;33.59;25.43555;926.3853;;;;
2020/10/01 14:04:30;;;;;;;1.9;0.9;;;;;;;33.39;25.95313;926.4101;;;;
2020/10/01 14:06:56;;;;;;;1;0.9;;;;;;;33.15;25.61523;926.4059;;;;
2020/10/01 14:09:20;;;;;;;1.5;0.9;;;;;;;33.19;25.94238;926.3932;;;;
2020/10/01 14:11:47;;;;;;;1.4;0.7;;;;;;;33.1;25.79199;926.4895;;;;
2020/10/01 14:14:12;;;;;;;1.2;0.6;;;;;;;32.58;26.60254;926.4755;;;;
2020/10/01 14:16:37;;;;;;;1.1;0.7;;;;;;;31.75;28.21973;926.4122;;;;
2020/10/01 14:19:03;;;;;;;2;0.8;;;;;;;31.75;28.74609;926.3979;;;;
2020/10/01 14:21:28;;;;;;;2.5;1.2;;;;;;;31.43;29.07227;926.3477;;;;
2020/10/01 14:23:55;;;;;;;1.7;0.9;;;;;;;30.92;29.8291;926.3031;;;;
2020/10/01 14:26:21;;;;;;;0.9;0.8;;;;;;;29.67;31.67871;926.355;;;;
2020/10/01 14:28:46;;;;;;;1.4;0.8;;;;;;;28.9;33.62402;926.3455;;;;
2020/10/01 14:31:16;;;;;;;2;0.8;;;;;;;28.86;33.57422;926.2434;;;;
2020/10/01 14:33:41;;;;;;;2.3;1.1;;;;;;;28.41;34.58691;926.283;;;;
2020/10/01 14:36:08;;;;;;;1.3;1;;;;;;;27.55;36.49023;926.2264;;;;
2020/10/01 14:38:33;;;;;;;1.1;1;;;;;;;26.77;38.14355;926.2211;;;;
2020/10/01 14:41:01;;;;;;;0.7;0.5;;;;;;;25.76;39.91504;926.2769;;;;
2020/10/01 14:43:26;;;;;;;1.4;0.8;;;;;;;25.18;41.33789;926.245;;;;
2020/10/01 14:45:54;;;;;;;2.5;1.3;;;;;;;24.68;42.85938;926.1912;;;;
2020/10/01 14:48:21;;;;;;;13.6;2.3;;;;;;;24.37;43.86719;926.1703;;;;
2020/10/01 14:50:46;;;;;;;1.9;1.2;;;;;;;24.19;44.50879;926.2131;;;;
2020/10/01 14:53:12;;;;;;;3.2;1.4;;;;;;;23.79;45.9873;926.1306;;;;
2020/10/01 14:55:37;;;;;;;2.4;1.3;;;;;;;23.67;46.02246;926.2222;;;;
2020/10/01 14:58:04;;;;;;;2.6;1.7;;;;;;;23.49;45.74609;926.2167;;;;
2020/10/01 15:00:31;;;;;;;1.4;0.8;;;;;;;23.47;45.88281;926.1981;;;;
2020/10/01 15:02:56;;;;;;;1.8;1.2;;;;;;;22.27;48.58691;926.2653;;;;
2020/10/01 15:05:21;;;;;;;2;1.5;;;;;;;22.22;48.80469;926.2992;;;;
2020/10/01 15:07:47;;;;;;;1.8;1.4;;;;;;;22.11;49.13281;926.2775;;;;
2020/10/01 15:10:15;;;;;;;2.1;1.2;;;;;;;21.05;51.7041;926.3164;;;;
2020/10/01 15:12:41;;;;;;;1.9;1;;;;;;;21.48;50.89941;926.2257;;;;
2020/10/01 15:15:06;;;;;;;2.2;1.1;;;;;;;21.34;50.76758;926.1872;;;;
2020/10/01 15:17:31;;;;;;;1.8;1.1;;;;;;;21.32;50.62402;926.2134;;;;
2020/10/01 15:19:56;;;;;;;2.3;1.1;;;;;;;21.41;51.3125;926.2355;;;;
2020/10/01 15:22:22;;;;;;;2.1;1.2;;;;;;;21.42;51.44238;926.3102;;;;
2020/10/01 15:24:47;;;;;;;2.5;1.3;;;;;;;21.45;52.74609;926.3228;;;;
2020/10/01 15:27:13;;;;;;;3.3;1;;;;;;;21.43;53.48047;926.2924;;;;
2020/10/01 15:29:38;;;;;;;2.3;1.3;;;;;;;21.47;53.1582;926.3663;;;;
2020/10/01 15:32:03;;;;;;;1.6;1.2;;;;;;;21.41;53.51367;926.3147;;;;
2020/10/01 15:34:30;;;;;;;0.9;0.8;;;;;;;21.36;53.84766;926.3766;;;;
2020/10/01 15:36:55;;;;;;;4.7;1;;;;;;;21.15;54.1377;926.3273;;;;